Time;durP1;ratioP1;P1;durP2;ratioP2;P2;SDS_P1;SDS_P2;PMS_P1;PMS_P2;Temp;Humidity;BMP_temperature;BMP_pressure;BME280_temperature;BME280_humidity;BME280_pressure;Samples;Min_cycle;Max_cycle;Signal;HPM_P1;HPM_P2
2021/09/27 00:01:51;;;;;;;16.30;14.60;;;16.10;99.90;;;;;;5059123;28;20912;-53
2021/09/27 00:04:21;;;;;;;15.00;12.90;;;16.10;99.90;;;;;;5058511;28;20954;-51
2021/09/27 00:06:47;;;;;;;14.47;12.90;;;15.90;99.90;;;;;;5058596;28;20491;-51
2021/09/27 00:09:14;;;;;;;15.53;14.07;;;15.90;99.90;;;;;;5058748;28;20462;-49
2021/09/27 00:11:41;;;;;;;15.67;14.27;;;15.80;1.00;;;;;;5038823;28;20459;-47
2021/09/27 00:14:08;;;;;;;14.20;12.63;;;15.80;1.00;;;;;;5038780;28;21032;-50
2021/09/27 00:16:36;;;;;;;15.17;13.67;;;15.70;1.00;;;;;;5038228;28;20502;-53
2021/09/27 00:19:05;;;;;;;16.37;14.70;;;15.60;99.90;;;;;;5038139;28;20467;-49
2021/09/27 00:21:34;;;;;;;15.60;14.17;;;15.60;99.90;;;;;;5038729;28;20513;-47
2021/09/27 00:24:04;;;;;;;16.40;14.70;;;15.70;99.90;;;;;;5038173;28;20739;-47
2021/09/27 00:26:31;;;;;;;18.30;15.00;;;15.60;1.00;;;;;;5038392;28;20463;-48
2021/09/27 00:28:58;;;;;;;15.47;13.80;;;15.50;1.00;;;;;;5038035;28;20463;-49
2021/09/27 00:31:25;;;;;;;15.23;13.80;;;15.40;48.70;;;;;;5038388;28;20510;-51
2021/09/27 00:33:52;;;;;;;16.20;14.70;;;15.40;99.90;;;;;;5038358;28;20555;-48
2021/09/27 00:36:21;;;;;;;14.30;13.00;;;15.40;1.60;;;;;;5038849;28;20462;-52
2021/09/27 00:38:48;;;;;;;14.23;12.83;;;15.40;1.00;;;;;;5038192;28;20468;-54
2021/09/27 00:41:17;;;;;;;15.47;14.07;;;15.30;1.00;;;;;;5037001;28;20500;-50
2021/09/27 00:43:46;;;;;;;16.27;14.33;;;15.40;99.90;;;;;;5036630;28;20811;-52
2021/09/27 00:46:19;;;;;;;17.53;15.80;;;15.40;99.90;;;;;;5036278;28;20479;-56
2021/09/27 00:48:46;;;;;;;15.77;14.17;;;15.40;53.00;;;;;;5047113;28;20932;-57
2021/09/27 00:51:16;;;;;;;15.90;14.40;;;15.30;43.70;;;;;;5057744;28;20470;-56
2021/09/27 00:53:49;;;;;;;16.77;15.00;;;15.30;99.90;;;;;;5057681;28;20490;-56
2021/09/27 00:56:25;;;;;;;16.10;14.50;;;15.30;99.90;;;;;;5057906;28;20490;-56
2021/09/27 00:58:52;;;;;;;15.50;13.83;;;15.30;99.90;;;;;;5057955;28;20471;-57
2021/09/27 01:01:21;;;;;;;21.20;15.30;;;15.20;99.90;;;;;;5057841;28;20801;-57
2021/09/27 01:03:49;;;;;;;15.43;13.93;;;15.30;99.90;;;;;;5057915;28;20465;-56
2021/09/27 01:06:55;;;;;;;15.47;13.97;;;15.30;99.90;;;;;;5057405;28;20780;-53
2021/09/27 01:09:36;;;;;;;14.27;12.90;;;15.30;99.90;;;;;;5057411;28;20492;-56
2021/09/27 01:12:36;;;;;;;15.60;14.10;;;15.40;99.90;;;;;;5056992;28;20913;-55
2021/09/27 01:15:18;;;;;;;14.00;12.70;;;15.30;99.90;;;;;;5057427;28;20976;-51
2021/09/27 01:17:55;;;;;;;15.90;14.20;;;15.30;99.90;;;;;;5057919;28;20487;-52
2021/09/27 01:20:55;;;;;;;14.13;12.70;;;15.30;99.90;;;;;;5057937;28;20791;-54
2021/09/27 01:23:57;;;;;;;15.13;13.63;;;15.40;99.90;;;;;;5054209;28;20474;-49
2021/09/27 01:26:49;;;;;;;15.00;13.50;;;15.50;99.90;;;;;;5057644;28;20497;-50
2021/09/27 01:29:45;;;;;;;15.70;13.20;;;15.50;99.90;;;;;;5057391;28;20466;-51
2021/09/27 01:32:37;;;;;;;16.63;14.90;;;15.50;99.90;;;;;;5040219;28;20532;-50
2021/09/27 01:35:17;;;;;;;15.70;14.23;;;15.60;99.90;;;;;;5057011;28;20941;-57
2021/09/27 01:38:03;;;;;;;16.30;14.50;;;15.70;99.90;;;;;;5057620;28;20807;-55
2021/09/27 01:40:36;;;;;;;16.70;15.20;;;15.70;99.90;;;;;;5057422;28;20481;-54
2021/09/27 01:46:32;;;;;;;15.10;13.73;;;15.70;99.90;;;;;;5057145;28;20388;-49
2021/09/27 01:49:05;;;;;;;16.00;14.50;;;15.60;99.90;;;;;;5056696;28;20491;-51
2021/09/27 01:51:50;;;;;;;15.60;14.10;;;15.70;99.90;;;;;;5056774;28;20470;-49
2021/09/27 01:54:24;;;;;;;15.90;14.27;;;15.70;99.90;;;;;;5057035;28;20500;-50
2021/09/27 01:57:02;;;;;;;14.53;13.07;;;15.70;99.90;;;;;;5056729;28;20470;-47
2021/09/27 01:59:40;;;;;;;15.87;14.27;;;15.60;1.00;;;;;;5056857;28;20462;-48
2021/09/27 02:02:12;;;;;;;15.23;13.87;;;15.50;1.00;;;;;;5056960;28;20462;-50
2021/09/27 02:04:51;;;;;;;14.47;12.87;;;15.50;1.00;;;;;;5056890;28;20498;-49
2021/09/27 02:07:21;;;;;;;15.30;13.67;;;15.40;1.00;;;;;;5061330;28;20967;-50
2021/09/27 02:09:55;;;;;;;14.33;12.93;;;15.40;1.00;;;;;;5059136;28;20463;-53
2021/09/27 02:12:26;;;;;;;14.83;13.40;;;15.30;28.80;;;;;;5043804;28;20454;-49
2021/09/27 02:15:02;;;;;;;15.23;13.73;;;15.30;99.90;;;;;;5043177;28;20556;-54
2021/09/27 02:17:37;;;;;;;14.13;12.80;;;15.30;99.90;;;;;;5043427;28;20557;-50
2021/09/27 02:20:12;;;;;;;16.50;14.77;;;15.20;99.90;;;;;;5043503;28;20465;-53
2021/09/27 02:22:43;;;;;;;14.67;13.27;;;15.20;99.90;;;;;;5043489;28;20457;-53
2021/09/27 02:25:16;;;;;;;16.60;15.10;;;15.20;99.90;;;;;;5043588;28;20433;-54
2021/09/27 02:27:45;;;;;;;14.83;13.40;;;15.10;99.90;;;;;;5043120;28;20475;-57
2021/09/27 02:30:16;;;;;;;15.60;14.10;;;15.00;99.90;;;;;;5043430;28;20462;-57
2021/09/27 02:32:49;;;;;;;16.43;14.80;;;15.00;99.90;;;;;;5042918;28;20474;-56
2021/09/27 02:35:22;;;;;;;17.13;15.53;;;15.10;99.90;;;;;;5043190;28;20553;-57
2021/09/27 02:38:01;;;;;;;18.07;16.17;;;15.10;99.90;;;;;;5043443;28;20463;-57
2021/09/27 02:40:34;;;;;;;18.67;16.97;;;15.10;99.90;;;;;;5043289;28;20485;-57
2021/09/27 02:43:04;;;;;;;18.67;16.73;;;15.20;99.90;;;;;;5043080;28;20466;-57
2021/09/27 02:45:31;;;;;;;20.17;18.07;;;15.20;99.90;;;;;;5043735;28;20777;-53
2021/09/27 02:48:09;;;;;;;17.30;15.60;;;15.20;99.90;;;;;;5047036;28;20462;-57
2021/09/27 02:50:45;;;;;;;18.57;16.70;;;15.20;99.90;;;;;;5063227;28;20466;-56
2021/09/27 02:53:14;;;;;;;18.00;16.30;;;15.20;99.90;;;;;;5063791;28;20737;-54
2021/09/27 02:55:57;;;;;;;20.00;17.33;;;15.20;99.90;;;;;;5063476;28;20552;-53
2021/09/27 02:58:31;;;;;;;19.50;17.60;;;15.20;99.90;;;;;;5063347;28;20511;-55
2021/09/27 03:01:04;;;;;;;17.60;15.77;;;15.20;99.90;;;;;;5063259;28;20888;-57
2021/09/27 03:03:43;;;;;;;17.93;16.03;;;15.20;99.90;;;;;;5063064;28;20461;-55
2021/09/27 03:06:24;;;;;;;16.80;15.10;;;15.30;99.90;;;;;;5063107;28;20457;-56
2021/09/27 03:09:02;;;;;;;17.73;15.93;;;15.40;99.90;;;;;;5063451;28;20461;-57
2021/09/27 03:11:52;;;;;;;18.70;16.30;;;15.40;99.90;;;;;;5044524;28;20462;-55
2021/09/27 03:14:38;;;;;;;21.70;15.73;;;15.40;99.90;;;;;;5043135;28;20490;-57
2021/09/27 03:17:14;;;;;;;19.60;17.50;;;15.50;99.90;;;;;;5043178;28;20463;-54
2021/09/27 03:19:53;;;;;;;18.37;16.30;;;15.50;99.90;;;;;;5038865;28;20459;-57
2021/09/27 03:22:33;;;;;;;17.47;15.80;;;15.50;99.90;;;;;;5040036;28;20466;-54
2021/09/27 03:25:12;;;;;;;18.50;16.40;;;15.50;99.90;;;;;;5039631;28;20459;-51
2021/09/27 03:27:49;;;;;;;17.20;15.50;;;15.60;99.90;;;;;;5039682;28;20816;-50
2021/09/27 03:30:23;;;;;;;18.17;16.37;;;15.60;99.90;;;;;;5039775;28;20882;-51
2021/09/27 03:33:00;;;;;;;19.13;16.67;;;15.60;99.90;;;;;;5039192;28;20840;-55
2021/09/27 03:35:38;;;;;;;17.87;16.10;;;15.60;99.90;;;;;;5039427;28;21002;-53
2021/09/27 03:38:15;;;;;;;17.13;15.40;;;15.70;99.90;;;;;;5039655;28;20438;-53
2021/09/27 03:40:58;;;;;;;18.17;16.00;;;15.70;99.90;;;;;;5039272;28;20462;-53
2021/09/27 03:43:34;;;;;;;16.20;14.70;;;15.70;99.90;;;;;;5039385;28;20463;-50
2021/09/27 03:46:12;;;;;;;16.73;15.00;;;15.70;99.90;;;;;;5039775;28;20458;-47
2021/09/27 03:48:48;;;;;;;18.13;15.40;;;15.70;99.90;;;;;;5055332;28;20466;-53
2021/09/27 03:51:20;;;;;;;16.47;14.77;;;15.70;99.90;;;;;;5058958;28;20469;-49
2021/09/27 03:53:52;;;;;;;16.67;15.17;;;15.70;99.90;;;;;;5059260;28;20830;-54
2021/09/27 03:56:24;;;;;;;15.67;14.23;;;15.80;99.90;;;;;;5058884;28;20548;-55
2021/09/27 03:59:03;;;;;;;16.80;14.40;;;15.80;99.90;;;;;;5058720;28;20576;-53
2021/09/27 04:01:38;;;;;;;17.27;15.33;;;15.80;99.90;;;;;;5059152;28;20491;-47
2021/09/27 04:04:21;;;;;;;15.33;13.83;;;15.80;99.90;;;;;;5059229;28;20461;-52
2021/09/27 04:06:58;;;;;;;18.23;14.30;;;15.80;99.90;;;;;;5058524;28;20469;-51
2021/09/27 04:09:37;;;;;;;16.50;14.70;;;15.70;99.90;;;;;;5059069;28;20468;-50
2021/09/27 04:12:17;;;;;;;15.53;14.10;;;15.80;99.90;;;;;;5058336;28;20466;-56
2021/09/27 04:14:53;;;;;;;16.53;14.83;;;15.80;99.90;;;;;;5058633;28;20838;-51
2021/09/27 04:17:36;;;;;;;16.37;14.53;;;15.80;99.90;;;;;;5058973;28;20468;-53
2021/09/27 04:20:08;;;;;;;16.90;13.80;;;15.80;99.90;;;;;;5056498;28;20982;-53
2021/09/27 04:22:39;;;;;;;16.00;14.50;;;15.80;99.90;;;;;;5057966;28;20880;-52
2021/09/27 04:25:15;;;;;;;15.63;14.00;;;15.80;99.90;;;;;;5057260;28;20488;-51
2021/09/27 04:28:14;;;;;;;14.63;12.93;;;15.70;99.90;;;;;;5056915;28;20787;-51
2021/09/27 04:31:06;;;;;;;16.00;13.97;;;15.80;99.90;;;;;;5054811;28;20466;-56
2021/09/27 04:33:50;;;;;;;14.57;13.07;;;15.80;99.90;;;;;;5054483;28;20998;-55
2021/09/27 04:36:21;;;;;;;16.33;14.80;;;15.80;99.90;;;;;;5056859;28;20497;-47
2021/09/27 04:38:51;;;;;;;16.23;14.17;;;15.70;99.90;;;;;;5056629;28;20475;-54
2021/09/27 04:41:48;;;;;;;15.03;13.53;;;15.70;99.90;;;;;;5056767;28;20527;-54
2021/09/27 04:44:32;;;;;;;16.30;14.60;;;15.70;99.90;;;;;;5057199;28;20512;-52
2021/09/27 04:47:07;;;;;;;16.03;14.33;;;15.60;99.90;;;;;;5056376;28;20490;-52
2021/09/27 04:49:59;;;;;;;17.93;15.73;;;15.70;99.90;;;;;;5056589;28;20469;-52
2021/09/27 04:52:35;;;;;;;18.57;14.97;;;15.70;99.90;;;;;;5056218;28;20515;-53
2021/09/27 04:55:23;;;;;;;15.63;14.13;;;15.70;99.90;;;;;;5056656;28;20488;-53
2021/09/27 04:58:06;;;;;;;16.23;14.37;;;15.70;99.90;;;;;;5057437;28;20507;-57
2021/09/27 05:00:45;;;;;;;18.80;16.00;;;15.70;99.90;;;;;;5057293;28;20821;-56
2021/09/27 05:03:50;;;;;;;22.73;16.10;;;15.60;99.90;;;;;;5057846;28;20923;-55
2021/09/27 05:06:50;;;;;;;16.77;14.30;;;15.60;99.90;;;;;;5050909;28;20473;-49
2021/09/27 05:09:30;;;;;;;15.27;13.27;;;15.60;99.90;;;;;;5057609;28;20969;-52
2021/09/27 05:12:25;;;;;;;17.10;15.27;;;15.60;99.90;;;;;;5057499;28;20531;-50
2021/09/27 05:15:31;;;;;;;16.73;15.07;;;15.60;99.90;;;;;;5057473;28;20494;-53
2021/09/27 05:18:14;;;;;;;15.10;13.60;;;15.60;99.90;;;;;;4957079;29;20831;-55
2021/09/27 05:21:15;;;;;;;21.70;13.97;;;15.50;99.90;;;;;;4967981;28;20821;-55
2021/09/27 05:23:49;;;;;;;15.33;13.67;;;15.50;99.90;;;;;;5040099;28;20738;-49
2021/09/27 05:26:38;;;;;;;16.93;14.30;;;15.50;99.90;;;;;;5054078;28;20474;-54
2021/09/27 05:29:16;;;;;;;16.67;14.97;;;15.50;99.90;;;;;;5055280;28;20972;-56
2021/09/27 05:32:14;;;;;;;18.13;16.30;;;15.50;99.90;;;;;;5049390;28;20481;-51
2021/09/27 05:35:00;;;;;;;17.03;15.10;;;15.40;99.90;;;;;;5053282;28;20965;-56
2021/09/27 05:37:36;;;;;;;19.33;16.43;;;15.40;99.90;;;;;;5036732;28;20553;-57
2021/09/27 05:40:16;;;;;;;18.43;16.17;;;15.40;99.90;;;;;;5051200;28;20884;-53
2021/09/27 05:42:53;;;;;;;18.00;15.10;;;15.50;99.90;;;;;;5054731;28;20467;-53
2021/09/27 05:45:27;;;;;;;17.60;15.23;;;15.50;99.90;;;;;;5049371;28;20787;-50
2021/09/27 05:48:02;;;;;;;15.57;14.00;;;15.50;99.90;;;;;;5041624;28;20489;-49
2021/09/27 05:50:35;;;;;;;18.00;15.73;;;15.50;99.90;;;;;;5040307;28;20469;-48
2021/09/27 05:53:11;;;;;;;17.27;15.57;;;15.50;99.90;;;;;;5055945;28;20954;-55
2021/09/27 05:55:43;;;;;;;19.60;15.60;;;15.50;99.90;;;;;;5056144;28;20489;-52
2021/09/27 05:58:14;;;;;;;16.43;14.70;;;15.60;99.90;;;;;;5055730;28;20908;-52
2021/09/27 06:00:48;;;;;;;16.53;15.00;;;15.60;99.90;;;;;;5052595;28;20536;-53
2021/09/27 06:03:40;;;;;;;16.47;14.77;;;15.60;99.90;;;;;;5051564;28;20528;-50
2021/09/27 06:06:22;;;;;;;17.10;15.40;;;15.60;99.90;;;;;;5040193;28;20463;-50
2021/09/27 06:08:57;;;;;;;17.37;15.67;;;15.70;99.90;;;;;;5055774;28;20569;-52
2021/09/27 06:11:35;;;;;;;18.60;16.70;;;15.80;99.90;;;;;;5055574;28;20465;-53
2021/09/27 06:14:03;;;;;;;22.20;14.93;;;15.80;3.50;;;;;;5056294;28;20462;-50
2021/09/27 06:16:43;;;;;;;17.17;15.40;;;15.90;1.00;;;;;;5055549;28;20539;-48
2021/09/27 06:19:18;;;;;;;18.80;15.60;;;15.90;1.00;;;;;;5056630;28;20552;-48
2021/09/27 06:22:23;;;;;;;16.60;14.97;;;15.80;1.00;;;;;;5056683;28;20461;-49
2021/09/27 06:25:00;;;;;;;17.30;15.70;;;15.90;99.90;;;;;;5056429;28;20462;-48
2021/09/27 06:27:37;;;;;;;15.90;14.20;;;15.90;99.90;;;;;;5056594;28;20462;-53
2021/09/27 06:30:11;;;;;;;15.90;14.40;;;15.90;1.00;;;;;;5056771;28;20881;-53
2021/09/27 06:32:50;;;;;;;16.53;14.10;;;16.00;99.90;;;;;;5056455;28;20466;-55
2021/09/27 06:35:32;;;;;;;15.67;14.17;;;16.00;99.90;;;;;;5056579;28;20500;-51
2021/09/27 06:38:05;;;;;;;16.43;13.53;;;16.00;99.90;;;;;;5055377;28;20466;-50
2021/09/27 06:40:33;;;;;;;16.20;14.50;;;16.00;99.90;;;;;;5056396;28;20458;-53
2021/09/27 06:43:01;;;;;;;17.33;15.40;;;16.10;1.00;;;;;;5055957;28;20963;-50
2021/09/27 06:45:28;;;;;;;16.53;14.90;;;16.20;99.90;;;;;;5056536;28;20803;-50
2021/09/27 06:47:55;;;;;;;17.63;13.70;;;16.40;96.20;;;;;;5056581;28;20520;-53
2021/09/27 06:50:22;;;;;;;15.73;14.20;;;16.40;1.00;;;;;;5056676;28;20831;-48
2021/09/27 06:52:53;;;;;;;14.00;12.70;;;16.60;99.90;;;;;;5057452;28;20461;-53
2021/09/27 06:55:20;;;;;;;14.30;12.87;;;16.70;99.90;;;;;;5060233;28;20954;-47
2021/09/27 06:57:47;;;;;;;15.70;13.47;;;16.90;99.90;;;;;;5060314;28;20461;-52
2021/09/27 07:00:15;;;;;;;14.87;13.33;;;17.10;99.90;;;;;;5060347;28;20499;-53
2021/09/27 07:02:42;;;;;;;15.70;13.83;;;17.20;14.30;;;;;;5059947;28;20470;-50
2021/09/27 07:05:10;;;;;;;14.00;12.67;;;17.40;1.00;;;;;;5060239;28;20458;-47
2021/09/27 07:07:38;;;;;;;15.57;14.03;;;17.30;1.00;;;;;;5060040;28;20564;-49
2021/09/27 07:10:13;;;;;;;13.70;12.37;;;17.30;1.00;;;;;;5060169;28;20462;-49
2021/09/27 07:12:40;;;;;;;13.53;12.23;;;17.40;1.00;;;;;;5059747;28;20515;-53
2021/09/27 07:15:11;;;;;;;13.00;11.83;;;17.70;1.00;;;;;;5059531;28;20466;-55
2021/09/27 07:17:38;;;;;;;13.60;12.30;;;17.80;1.00;;;;;;5059856;28;20545;-52
2021/09/27 07:20:07;;;;;;;13.90;11.47;;;17.70;1.00;;;;;;5060177;28;20473;-50
2021/09/27 07:22:34;;;;;;;12.70;11.27;;;17.90;1.00;;;;;;5059430;28;20462;-56
2021/09/27 07:25:01;;;;;;;11.53;10.50;;;18.00;1.00;;;;;;5059460;28;20465;-51
2021/09/27 07:27:29;;;;;;;13.40;12.17;;;18.10;1.00;;;;;;5059591;28;20557;-56
2021/09/27 07:29:56;;;;;;;12.93;11.63;;;18.20;1.00;;;;;;5059655;28;20436;-54
2021/09/27 07:32:24;;;;;;;12.33;11.13;;;18.10;1.00;;;;;;5059753;28;20462;-47
2021/09/27 07:34:53;;;;;;;11.97;10.80;;;18.00;1.00;;;;;;5059073;28;20490;-51
2021/09/27 07:37:22;;;;;;;12.83;11.63;;;18.10;1.00;;;;;;5059300;28;20801;-50
2021/09/27 07:39:49;;;;;;;11.80;10.80;;;18.20;1.00;;;;;;5058055;28;20896;-51
2021/09/27 07:42:16;;;;;;;12.73;11.50;;;18.40;1.00;;;;;;5058194;28;20889;-50
2021/09/27 07:44:48;;;;;;;12.27;11.17;;;18.60;1.00;;;;;;5058437;28;20889;-49
2021/09/27 07:47:15;;;;;;;11.90;10.70;;;18.70;1.00;;;;;;5059522;28;20911;-52
2021/09/27 07:49:44;;;;;;;11.37;10.27;;;18.70;1.00;;;;;;5059216;28;20893;-53
2021/09/27 07:52:13;;;;;;;11.53;10.60;;;19.20;1.00;;;;;;5059339;28;20531;-50
2021/09/27 07:54:40;;;;;;;11.70;10.07;;;19.20;1.00;;;;;;5058933;28;20811;-57
2021/09/27 07:57:08;;;;;;;11.83;10.63;;;18.90;1.00;;;;;;5059045;28;20847;-48
2021/09/27 07:59:37;;;;;;;12.33;11.00;;;18.50;1.00;;;;;;5058467;28;20466;-51
2021/09/27 08:02:06;;;;;;;12.30;11.20;;;18.70;1.00;;;;;;5059114;28;20462;-50
2021/09/27 08:04:35;;;;;;;13.13;12.03;;;18.70;1.00;;;;;;5057740;28;20955;-46
2021/09/27 08:07:02;;;;;;;12.93;11.70;;;18.60;1.00;;;;;;5058269;28;20904;-52
2021/09/27 08:09:31;;;;;;;13.23;11.73;;;18.50;1.00;;;;;;5045982;28;20544;-47
2021/09/27 08:11:58;;;;;;;11.33;10.30;;;18.50;1.00;;;;;;5050594;28;20471;-50
2021/09/27 08:14:25;;;;;;;10.77;9.77;;;19.00;1.00;;;;;;5053961;28;20547;-52
2021/09/27 08:16:55;;;;;;;12.50;11.40;;;19.40;1.00;;;;;;5058280;28;20551;-46
2021/09/27 08:19:25;;;;;;;11.73;10.67;;;19.40;1.00;;;;;;5053100;28;20474;-53
2021/09/27 08:21:52;;;;;;;11.13;10.10;;;19.60;1.00;;;;;;5054962;28;20495;-46
2021/09/27 08:24:22;;;;;;;12.33;11.13;;;19.80;1.00;;;;;;5045758;28;20520;-50
2021/09/27 08:26:51;;;;;;;12.30;11.20;;;19.90;1.00;;;;;;5041502;28;20797;-48
2021/09/27 08:29:19;;;;;;;10.53;9.57;;;19.80;1.00;;;;;;5051145;28;20471;-49
2021/09/27 08:31:46;;;;;;;11.00;10.00;;;20.20;1.00;;;;;;5046512;28;20474;-50
2021/09/27 08:34:13;;;;;;;11.17;10.17;;;20.60;1.00;;;;;;5044089;28;20502;-48
2021/09/27 08:36:46;;;;;;;10.47;9.57;;;20.60;1.00;;;;;;5043548;28;20787;-48
2021/09/27 08:39:14;;;;;;;11.03;9.80;;;20.60;1.00;;;;;;5056838;28;20473;-46
2021/09/27 08:41:51;;;;;;;9.57;8.73;;;20.90;1.00;;;;;;5050304;28;20532;-45
2021/09/27 08:44:33;;;;;;;10.90;9.70;;;21.10;1.00;;;;;;5055056;28;20466;-46
2021/09/27 08:47:03;;;;;;;8.83;8.13;;;21.00;1.00;;;;;;5057873;28;20462;-45
2021/09/27 08:49:39;;;;;;;9.03;8.30;;;21.40;1.00;;;;;;5054231;28;20985;-47
2021/09/27 08:52:11;;;;;;;8.60;7.93;;;21.70;1.00;;;;;;5056507;28;20473;-46
2021/09/27 08:54:39;;;;;;;9.03;8.30;;;21.80;1.00;;;;;;5056988;28;20462;-47
2021/09/27 08:57:14;;;;;;;8.63;7.93;;;21.70;1.00;;;;;;5056421;28;20555;-47
2021/09/27 08:59:54;;;;;;;8.30;7.50;;;21.90;1.00;;;;;;5057885;28;20462;-46
2021/09/27 09:02:33;;;;;;;8.10;7.30;;;21.90;1.00;;;;;;5058153;28;20450;-54
2021/09/27 09:05:15;;;;;;;8.43;7.23;;;22.00;1.00;;;;;;5057751;28;20465;-50
2021/09/27 09:07:52;;;;;;;7.40;6.80;;;22.10;1.00;;;;;;5058248;28;20454;-55
2021/09/27 09:10:31;;;;;;;8.03;6.73;;;21.90;1.00;;;;;;5049126;28;20489;-48
2021/09/27 09:13:02;;;;;;;7.53;6.93;;;22.00;1.00;;;;;;5037623;28;20774;-48
2021/09/27 09:15:31;;;;;;;6.57;6.03;;;21.90;99.90;;;;;;5037256;28;20462;-49
2021/09/27 09:18:04;;;;;;;7.90;7.13;;;21.60;99.90;;;;;;5046427;28;20485;-47
2021/09/27 09:20:52;;;;;;;9.17;7.73;;;21.80;1.00;;;;;;5056119;28;20458;-48
2021/09/27 09:23:26;;;;;;;8.33;6.17;;;22.00;1.00;;;;;;5057500;28;20486;-55
2021/09/27 09:25:54;;;;;;;7.57;6.80;;;22.10;99.90;;;;;;5056443;28;20461;-47
2021/09/27 09:28:22;;;;;;;7.27;6.43;;;21.90;99.90;;;;;;5057252;28;20458;-47
2021/09/27 09:30:55;;;;;;;7.60;7.00;;;21.90;99.90;;;;;;5057001;28;20462;-46
2021/09/27 09:33:37;;;;;;;7.97;7.17;;;21.80;99.90;;;;;;5057272;28;20945;-47
2021/09/27 09:36:05;;;;;;;6.80;6.20;;;22.10;99.90;;;;;;5057280;28;20558;-46
2021/09/27 09:38:36;;;;;;;7.53;6.60;;;22.10;99.90;;;;;;5056537;28;20462;-47
2021/09/27 09:41:04;;;;;;;6.70;6.10;;;22.00;99.90;;;;;;5057044;28;20835;-48
2021/09/27 09:43:34;;;;;;;6.73;6.17;;;21.80;99.90;;;;;;5057081;28;20520;-50
2021/09/27 09:46:05;;;;;;;7.50;6.80;;;21.60;99.90;;;;;;5057222;28;21039;-50
2021/09/27 09:48:36;;;;;;;6.20;5.60;;;21.60;99.90;;;;;;5056662;28;20515;-50
2021/09/27 09:51:20;;;;;;;7.07;6.30;;;21.50;1.00;;;;;;5052939;28;20462;-52
2021/09/27 09:54:12;;;;;;;6.70;6.13;;;21.40;99.90;;;;;;5037283;28;20504;-48
2021/09/27 09:56:46;;;;;;;6.27;5.67;;;21.30;1.00;;;;;;5036807;28;20499;-46
2021/09/27 09:59:27;;;;;;;6.90;6.03;;;21.20;1.00;;;;;;5037360;28;20937;-46
2021/09/27 10:01:57;;;;;;;6.33;5.80;;;21.30;1.00;;;;;;5037243;28;20473;-48
2021/09/27 10:04:28;;;;;;;6.03;5.37;;;21.30;1.00;;;;;;5036887;28;20466;-50
2021/09/27 10:07:09;;;;;;;6.37;5.70;;;21.00;1.00;;;;;;5036627;28;20459;-49
2021/09/27 10:09:44;;;;;;;6.33;5.83;;;21.10;1.00;;;;;;5036881;28;20463;-46
2021/09/27 10:12:17;;;;;;;5.33;4.83;;;21.30;1.00;;;;;;5037276;28;20491;-46
2021/09/27 10:14:46;;;;;;;8.93;5.30;;;21.80;99.90;;;;;;5036621;28;20513;-49
2021/09/27 10:17:30;;;;;;;5.13;4.73;;;22.20;99.90;;;;;;5036595;28;20552;-46
2021/09/27 10:20:06;;;;;;;6.17;5.67;;;22.30;99.90;;;;;;5036860;28;20486;-46
2021/09/27 10:22:37;;;;;;;5.50;4.30;;;22.30;99.90;;;;;;5046370;28;20536;-47
2021/09/27 10:25:25;;;;;;;5.23;4.83;;;22.40;99.90;;;;;;5036831;28;20812;-46
2021/09/27 10:27:53;;;;;;;6.17;5.57;;;22.20;99.90;;;;;;5038499;28;20889;-51
2021/09/27 10:30:26;;;;;;;5.30;4.73;;;22.00;99.90;;;;;;5041004;28;20528;-50
2021/09/27 10:32:56;;;;;;;8.27;5.13;;;22.00;99.90;;;;;;5040084;28;20466;-49
2021/09/27 10:35:33;;;;;;;5.70;4.97;;;22.00;99.90;;;;;;5042787;28;20892;-54
2021/09/27 10:38:05;;;;;;;5.30;4.90;;;21.80;99.90;;;;;;5051121;28;20548;-46
2021/09/27 10:40:38;;;;;;;6.20;5.70;;;21.30;99.90;;;;;;5059342;28;20474;-46
2021/09/27 10:43:14;;;;;;;5.80;5.30;;;21.30;99.90;;;;;;5056132;28;20474;-49
2021/09/27 10:45:44;;;;;;;6.23;5.73;;;21.20;99.90;;;;;;5058301;28;20861;-49
2021/09/27 10:48:12;;;;;;;6.90;5.27;;;20.90;99.90;;;;;;5057797;28;20465;-52
2021/09/27 10:50:45;;;;;;;6.23;5.60;;;20.70;1.00;;;;;;5051264;28;20470;-46
2021/09/27 10:53:20;;;;;;;6.03;5.40;;;20.80;1.00;;;;;;5052458;28;20474;-46
2021/09/27 10:55:54;;;;;;;5.67;5.20;;;20.60;1.00;;;;;;5049327;28;20742;-47
2021/09/27 10:58:44;;;;;;;6.20;4.70;;;20.50;1.00;;;;;;5056868;28;20941;-48
2021/09/27 11:01:30;;;;;;;6.80;5.60;;;20.50;1.00;;;;;;5055121;28;20480;-47
2021/09/27 11:04:00;;;;;;;5.93;5.33;;;20.30;1.00;;;;;;5058999;28;20474;-51
2021/09/27 11:06:35;;;;;;;7.20;6.40;;;20.30;1.00;;;;;;5059710;28;20813;-49
2021/09/27 11:09:06;;;;;;;5.23;4.83;;;20.30;1.00;;;;;;5059353;28;20461;-50
2021/09/27 11:11:48;;;;;;;6.20;5.60;;;20.20;1.00;;;;;;5039940;28;20437;-51
2021/09/27 11:14:41;;;;;;;6.10;5.60;;;20.20;1.00;;;;;;5051591;28;20458;-57
2021/09/27 11:17:31;;;;;;;6.60;6.10;;;20.30;1.00;;;;;;5058736;28;20497;-48
2021/09/27 11:20:21;;;;;;;5.60;4.80;;;20.40;1.00;;;;;;5046755;28;20741;-50
2021/09/27 11:23:07;;;;;;;5.87;5.30;;;20.40;1.00;;;;;;5014557;28;20556;-47
2021/09/27 11:25:37;;;;;;;6.63;6.10;;;20.40;1.00;;;;;;5059724;28;20531;-53
2021/09/27 11:28:15;;;;;;;5.87;5.37;;;20.50;1.00;;;;;;5052752;28;20466;-51
2021/09/27 11:30:46;;;;;;;6.07;5.50;;;20.70;1.00;;;;;;5052882;28;20469;-46
2021/09/27 11:33:48;;;;;;;6.27;5.63;;;20.80;1.00;;;;;;5057848;28;20495;-47
2021/09/27 11:36:35;;;;;;;6.00;5.40;;;20.80;1.00;;;;;;5052502;28;20470;-47
2021/09/27 11:39:25;;;;;;;5.83;5.30;;;20.70;1.00;;;;;;5057007;28;20971;-46
2021/09/27 11:42:24;;;;;;;6.80;5.70;;;20.70;1.00;;;;;;5059400;28;20466;-47
2021/09/27 11:45:12;;;;;;;6.37;5.87;;;20.70;1.00;;;;;;5056958;28;20889;-54
2021/09/27 11:48:05;;;;;;;6.07;5.57;;;20.70;1.00;;;;;;5059094;28;20511;-48
2021/09/27 11:51:05;;;;;;;5.77;5.27;;;20.70;1.00;;;;;;5051116;28;20575;-47
2021/09/27 11:53:59;;;;;;;5.87;4.70;;;20.60;1.00;;;;;;5058896;28;20813;-47
2021/09/27 11:56:35;;;;;;;6.83;5.50;;;20.60;1.00;;;;;;5057505;28;20466;-49
2021/09/27 11:59:11;;;;;;;9.13;5.40;;;20.50;1.00;;;;;;5058499;28;20493;-49
2021/09/27 12:01:49;;;;;;;7.23;5.87;;;20.40;1.00;;;;;;5058726;28;20486;-47
2021/09/27 12:04:29;;;;;;;6.50;5.03;;;20.40;1.00;;;;;;5054986;28;20540;-47
2021/09/27 12:07:02;;;;;;;5.60;4.70;;;20.50;1.00;;;;;;5058696;28;20516;-50
2021/09/27 12:09:39;;;;;;;5.53;5.03;;;20.50;1.00;;;;;;5056950;28;20538;-49
2021/09/27 12:12:07;;;;;;;6.17;4.80;;;20.40;1.00;;;;;;5038802;28;20880;-50
2021/09/27 12:14:41;;;;;;;5.40;4.47;;;20.60;1.00;;;;;;5049039;28;20455;-47
2021/09/27 12:17:15;;;;;;;5.40;4.90;;;20.70;1.00;;;;;;5069431;28;20539;-49
2021/09/27 12:19:49;;;;;;;6.03;4.80;;;20.80;1.00;;;;;;5052782;28;20463;-49
2021/09/27 12:22:24;;;;;;;6.80;5.20;;;21.00;1.00;;;;;;5060567;28;20439;-49
2021/09/27 12:24:55;;;;;;;5.07;4.57;;;20.90;1.00;;;;;;5045181;28;20512;-50
2021/09/27 12:27:24;;;;;;;5.10;4.70;;;21.10;1.00;;;;;;5056705;28;20443;-49
2021/09/27 12:29:56;;;;;;;4.93;4.50;;;21.10;1.00;;;;;;5057997;28;20485;-51
2021/09/27 12:32:35;;;;;;;4.50;4.10;;;21.00;99.90;;;;;;5057097;28;20466;-46
2021/09/27 12:35:06;;;;;;;4.63;4.23;;;21.00;99.90;;;;;;5041875;28;20919;-46
2021/09/27 12:37:36;;;;;;;5.37;4.00;;;21.00;99.90;;;;;;5058286;28;20498;-49
2021/09/27 12:40:04;;;;;;;4.30;3.90;;;21.00;99.90;;;;;;5057967;28;20469;-46
2021/09/27 12:42:38;;;;;;;5.70;4.30;;;20.80;99.90;;;;;;5058106;28;20801;-53
2021/09/27 12:45:17;;;;;;;4.80;4.40;;;20.60;99.90;;;;;;5058207;28;20462;-46
2021/09/27 12:47:46;;;;;;;5.23;4.73;;;20.40;99.90;;;;;;5058151;28;20885;-47
2021/09/27 12:50:18;;;;;;;4.50;4.10;;;20.40;99.90;;;;;;5057897;28;20466;-47
2021/09/27 12:52:50;;;;;;;6.40;4.77;;;20.30;99.90;;;;;;5058381;28;20488;-46
2021/09/27 12:55:23;;;;;;;4.00;3.70;;;20.30;99.90;;;;;;5057902;28;20516;-50
2021/09/27 12:57:53;;;;;;;4.73;4.10;;;20.40;99.90;;;;;;5058185;28;20489;-49
2021/09/27 13:00:29;;;;;;;4.67;4.10;;;20.60;99.90;;;;;;5058139;28;20458;-49
2021/09/27 13:02:58;;;;;;;4.13;3.77;;;20.70;99.90;;;;;;5057753;28;20458;-46
2021/09/27 13:05:28;;;;;;;4.63;3.13;;;20.80;99.90;;;;;;5057692;28;20470;-47
2021/09/27 13:07:57;;;;;;;5.60;4.20;;;20.70;99.90;;;;;;5057392;28;20466;-47
2021/09/27 13:10:30;;;;;;;5.03;4.40;;;20.70;99.90;;;;;;5048244;28;20533;-49
2021/09/27 13:13:05;;;;;;;6.40;3.70;;;20.70;99.90;;;;;;5037892;28;20467;-47
2021/09/27 13:15:38;;;;;;;4.17;3.77;;;20.80;99.90;;;;;;5037972;28;20512;-49
2021/09/27 13:18:12;;;;;;;4.70;3.50;;;20.80;99.90;;;;;;5037648;28;20494;-48
2021/09/27 13:20:47;;;;;;;4.37;3.97;;;20.70;99.90;;;;;;5037458;28;20481;-48
2021/09/27 13:23:16;;;;;;;5.60;4.27;;;20.80;99.90;;;;;;5037530;28;20517;-47
2021/09/27 13:25:51;;;;;;;4.60;4.20;;;20.80;99.90;;;;;;5037812;28;20463;-47